sensor_id;sensor_type;location;lat;lon;timestamp;temperature;humidity
2935;DHT22;2462;51.456;7.248;2022-07-21T00:00:46;23.50;99.90
2935;DHT22;2462;51.456;7.248;2022-07-21T00:03:11;23.50;99.90
2935;DHT22;2462;51.456;7.248;2022-07-21T00:05:37;23.50;99.90
2935;DHT22;2462;51.456;7.248;2022-07-21T00:08:03;23.50;99.90
2935;DHT22;2462;51.456;7.248;2022-07-21T00:10:29;23.50;99.90
2935;DHT22;2462;51.456;7.248;2022-07-21T00:12:56;23.50;99.90
2935;DHT22;2462;51.456;7.248;2022-07-21T00:15:23;23.50;99.90
2935;DHT22;2462;51.456;7.248;2022-07-21T00:17:49;23.50;99.90
2935;DHT22;2462;51.456;7.248;2022-07-21T00:20:16;23.40;99.90
2935;DHT22;2462;51.456;7.248;2022-07-21T00:22:42;23.40;99.90
2935;DHT22;2462;51.456;7.248;2022-07-21T00:25:09;23.40;99.90
2935;DHT22;2462;51.456;7.248;2022-07-21T00:27:35;23.40;99.90
2935;DHT22;2462;51.456;7.248;2022-07-21T00:30:02;23.30;99.90
2935;DHT22;2462;51.456;7.248;2022-07-21T00:32:28;23.30;99.90
2935;DHT22;2462;51.456;7.248;2022-07-21T00:34:54;23.20;99.90
2935;DHT22;2462;51.456;7.248;2022-07-21T00:37:20;23.20;99.90
2935;DHT22;2462;51.456;7.248;2022-07-21T00:39:51;23.20;99.90
2935;DHT22;2462;51.456;7.248;2022-07-21T00:42:24;23.10;99.90
2935;DHT22;2462;51.456;7.248;2022-07-21T00:44:50;23.10;99.90
2935;DHT22;2462;51.456;7.248;2022-07-21T00:47:22;23.10;99.90
2935;DHT22;2462;51.456;7.248;2022-07-21T00:49:49;23.00;99.90
2935;DHT22;2462;51.456;7.248;2022-07-21T00:52:15;23.00;99.90
2935;DHT22;2462;51.456;7.248;2022-07-21T00:54:41;23.00;99.90
2935;DHT22;2462;51.456;7.248;2022-07-21T00:57:07;22.90;99.90
2935;DHT22;2462;51.456;7.248;2022-07-21T00:59:33;22.90;99.90
2935;DHT22;2462;51.456;7.248;2022-07-21T01:01:59;22.90;99.90
2935;DHT22;2462;51.456;7.248;2022-07-21T01:04:25;22.80;99.90
2935;DHT22;2462;51.456;7.248;2022-07-21T01:06:52;22.80;99.90
2935;DHT22;2462;51.456;7.248;2022-07-21T01:09:19;22.80;99.90
2935;DHT22;2462;51.456;7.248;2022-07-21T01:11:45;22.80;99.90
2935;DHT22;2462;51.456;7.248;2022-07-21T01:14:11;22.80;99.90
2935;DHT22;2462;51.456;7.248;2022-07-21T01:16:37;22.80;99.90
2935;DHT22;2462;51.456;7.248;2022-07-21T01:19:02;22.70;99.90
2935;DHT22;2462;51.456;7.248;2022-07-21T01:21:33;22.70;99.90
2935;DHT22;2462;51.456;7.248;2022-07-21T01:24:00;22.70;99.90
2935;DHT22;2462;51.456;7.248;2022-07-21T01:26:26;22.70;99.90
2935;DHT22;2462;51.456;7.248;2022-07-21T01:28:52;22.60;99.90
2935;DHT22;2462;51.456;7.248;2022-07-21T01:31:18;22.60;99.90
2935;DHT22;2462;51.456;7.248;2022-07-21T01:33:43;22.60;99.90
2935;DHT22;2462;51.456;7.248;2022-07-21T01:36:09;22.60;99.90
2935;DHT22;2462;51.456;7.248;2022-07-21T01:38:35;22.50;99.90
2935;DHT22;2462;51.456;7.248;2022-07-21T01:41:19;22.50;99.90
2935;DHT22;2462;51.456;7.248;2022-07-21T01:44:00;22.50;99.90
2935;DHT22;2462;51.456;7.248;2022-07-21T01:46:27;22.50;99.90
2935;DHT22;2462;51.456;7.248;2022-07-21T01:48:53;22.40;99.90
2935;DHT22;2462;51.456;7.248;2022-07-21T01:51:19;22.40;99.90
2935;DHT22;2462;51.456;7.248;2022-07-21T01:53:45;22.40;99.90
2935;DHT22;2462;51.456;7.248;2022-07-21T01:56:10;22.40;99.90
2935;DHT22;2462;51.456;7.248;2022-07-21T01:58:36;22.30;99.90
2935;DHT22;2462;51.456;7.248;2022-07-21T02:01:02;22.30;99.90
2935;DHT22;2462;51.456;7.248;2022-07-21T02:03:28;22.30;99.90
2935;DHT22;2462;51.456;7.248;2022-07-21T02:06:00;22.20;99.90
2935;DHT22;2462;51.456;7.248;2022-07-21T02:08:26;22.30;99.90
2935;DHT22;2462;51.456;7.248;2022-07-21T02:10:52;22.20;99.90
2935;DHT22;2462;51.456;7.248;2022-07-21T02:13:17;22.20;99.90
2935;DHT22;2462;51.456;7.248;2022-07-21T02:15:43;22.20;99.90
2935;DHT22;2462;51.456;7.248;2022-07-21T02:18:08;22.10;99.90
2935;DHT22;2462;51.456;7.248;2022-07-21T02:20:35;22.10;99.90
2935;DHT22;2462;51.456;7.248;2022-07-21T02:23:00;22.10;99.90
2935;DHT22;2462;51.456;7.248;2022-07-21T02:25:26;22.10;99.90
2935;DHT22;2462;51.456;7.248;2022-07-21T02:27:52;22.00;99.90
2935;DHT22;2462;51.456;7.248;2022-07-21T02:30:18;22.00;99.90
2935;DHT22;2462;51.456;7.248;2022-07-21T02:32:43;22.00;99.90
2935;DHT22;2462;51.456;7.248;2022-07-21T02:35:09;22.00;99.90
2935;DHT22;2462;51.456;7.248;2022-07-21T02:37:35;21.90;99.90
2935;DHT22;2462;51.456;7.248;2022-07-21T02:40:01;21.90;99.90
2935;DHT22;2462;51.456;7.248;2022-07-21T02:42:27;21.90;99.90
2935;DHT22;2462;51.456;7.248;2022-07-21T02:44:52;21.90;99.90
2935;DHT22;2462;51.456;7.248;2022-07-21T02:47:18;21.80;99.90
2935;DHT22;2462;51.456;7.248;2022-07-21T02:49:43;21.80;99.90
2935;DHT22;2462;51.456;7.248;2022-07-21T02:52:10;21.80;99.90
2935;DHT22;2462;51.456;7.248;2022-07-21T02:54:36;21.80;99.90
2935;DHT22;2462;51.456;7.248;2022-07-21T02:57:01;21.80;99.90
2935;DHT22;2462;51.456;7.248;2022-07-21T02:59:27;21.80;99.90
2935;DHT22;2462;51.456;7.248;2022-07-21T03:01:52;21.70;99.90
2935;DHT22;2462;51.456;7.248;2022-07-21T03:04:18;21.70;99.90
2935;DHT22;2462;51.456;7.248;2022-07-21T03:06:43;21.60;99.90
2935;DHT22;2462;51.456;7.248;2022-07-21T03:09:09;21.60;99.90
2935;DHT22;2462;51.456;7.248;2022-07-21T03:11:35;21.60;99.90
2935;DHT22;2462;51.456;7.248;2022-07-21T03:14:01;21.60;99.90
2935;DHT22;2462;51.456;7.248;2022-07-21T03:16:27;21.50;99.90
2935;DHT22;2462;51.456;7.248;2022-07-21T03:18:52;21.50;99.90
2935;DHT22;2462;51.456;7.248;2022-07-21T03:21:18;21.50;99.90
2935;DHT22;2462;51.456;7.248;2022-07-21T03:23:43;21.50;99.90
2935;DHT22;2462;51.456;7.248;2022-07-21T03:26:15;21.50;99.90
2935;DHT22;2462;51.456;7.248;2022-07-21T03:28:41;21.40;99.90
2935;DHT22;2462;51.456;7.248;2022-07-21T03:31:08;21.40;99.90
2935;DHT22;2462;51.456;7.248;2022-07-21T03:33:34;21.40;99.90
2935;DHT22;2462;51.456;7.248;2022-07-21T03:36:00;21.40;99.90
2935;DHT22;2462;51.456;7.248;2022-07-21T03:38:26;21.40;99.90
2935;DHT22;2462;51.456;7.248;2022-07-21T03:40:52;21.40;99.90
2935;DHT22;2462;51.456;7.248;2022-07-21T03:43:17;21.40;99.90
2935;DHT22;2462;51.456;7.248;2022-07-21T03:45:43;21.40;99.90
2935;DHT22;2462;51.456;7.248;2022-07-21T03:48:09;21.40;99.90
2935;DHT22;2462;51.456;7.248;2022-07-21T03:50:39;21.30;99.90
2935;DHT22;2462;51.456;7.248;2022-07-21T03:53:05;21.30;99.90
2935;DHT22;2462;51.456;7.248;2022-07-21T03:55:32;21.30;99.90
2935;DHT22;2462;51.456;7.248;2022-07-21T03:58:00;21.30;99.90
2935;DHT22;2462;51.456;7.248;2022-07-21T04:00:32;21.30;99.90
2935;DHT22;2462;51.456;7.248;2022-07-21T04:02:59;21.20;99.90
2935;DHT22;2462;51.456;7.248;2022-07-21T04:05:25;21.20;99.90
2935;DHT22;2462;51.456;7.248;2022-07-21T04:07:52;21.20;99.90
2935;DHT22;2462;51.456;7.248;2022-07-21T04:10:21;21.20;99.90
2935;DHT22;2462;51.456;7.248;2022-07-21T04:12:48;21.20;99.90
2935;DHT22;2462;51.456;7.248;2022-07-21T04:15:14;21.10;99.90
2935;DHT22;2462;51.456;7.248;2022-07-21T04:17:40;21.10;99.90
2935;DHT22;2462;51.456;7.248;2022-07-21T04:20:07;21.20;99.90
2935;DHT22;2462;51.456;7.248;2022-07-21T04:22:33;21.20;99.90
2935;DHT22;2462;51.456;7.248;2022-07-21T04:24:59;21.20;99.90
2935;DHT22;2462;51.456;7.248;2022-07-21T04:27:25;21.10;99.90
2935;DHT22;2462;51.456;7.248;2022-07-21T04:29:51;21.10;99.90
2935;DHT22;2462;51.456;7.248;2022-07-21T04:32:17;21.10;99.90
2935;DHT22;2462;51.456;7.248;2022-07-21T04:34:42;21.10;99.90
2935;DHT22;2462;51.456;7.248;2022-07-21T04:37:08;21.10;99.90
2935;DHT22;2462;51.456;7.248;2022-07-21T04:39:33;21.10;99.90
2935;DHT22;2462;51.456;7.248;2022-07-21T04:41:59;21.10;99.90
2935;DHT22;2462;51.456;7.248;2022-07-21T04:44:25;21.10;99.90
2935;DHT22;2462;51.456;7.248;2022-07-21T04:46:50;21.10;99.90
2935;DHT22;2462;51.456;7.248;2022-07-21T04:49:16;21.10;99.90
2935;DHT22;2462;51.456;7.248;2022-07-21T04:51:41;21.20;99.90
2935;DHT22;2462;51.456;7.248;2022-07-21T04:54:07;21.20;99.90
2935;DHT22;2462;51.456;7.248;2022-07-21T04:56:33;21.10;99.90
2935;DHT22;2462;51.456;7.248;2022-07-21T04:59:00;21.20;99.90
2935;DHT22;2462;51.456;7.248;2022-07-21T05:01:26;21.10;99.90
2935;DHT22;2462;51.456;7.248;2022-07-21T05:03:51;21.10;99.90
2935;DHT22;2462;51.456;7.248;2022-07-21T05:06:19;21.10;99.90
2935;DHT22;2462;51.456;7.248;2022-07-21T05:08:44;21.10;99.90
2935;DHT22;2462;51.456;7.248;2022-07-21T05:11:10;21.10;99.90
2935;DHT22;2462;51.456;7.248;2022-07-21T05:13:35;21.10;99.90
2935;DHT22;2462;51.456;7.248;2022-07-21T05:16:01;21.10;99.90
2935;DHT22;2462;51.456;7.248;2022-07-21T05:18:26;21.10;99.90
2935;DHT22;2462;51.456;7.248;2022-07-21T05:20:52;21.10;99.90
2935;DHT22;2462;51.456;7.248;2022-07-21T05:23:17;21.10;99.90
2935;DHT22;2462;51.456;7.248;2022-07-21T05:25:43;21.10;99.90
2935;DHT22;2462;51.456;7.248;2022-07-21T05:28:09;21.00;99.90
2935;DHT22;2462;51.456;7.248;2022-07-21T05:30:34;21.10;99.90
2935;DHT22;2462;51.456;7.248;2022-07-21T05:33:01;21.10;99.90
2935;DHT22;2462;51.456;7.248;2022-07-21T05:35:26;21.10;99.90
2935;DHT22;2462;51.456;7.248;2022-07-21T05:37:52;21.10;99.90
2935;DHT22;2462;51.456;7.248;2022-07-21T05:40:17;21.10;99.90
2935;DHT22;2462;51.456;7.248;2022-07-21T05:42:43;21.00;99.90
2935;DHT22;2462;51.456;7.248;2022-07-21T05:45:09;21.10;99.90
2935;DHT22;2462;51.456;7.248;2022-07-21T05:47:35;21.10;99.90
2935;DHT22;2462;51.456;7.248;2022-07-21T05:50:00;21.10;99.90
2935;DHT22;2462;51.456;7.248;2022-07-21T05:52:26;21.10;99.90
2935;DHT22;2462;51.456;7.248;2022-07-21T05:54:52;21.10;99.90
2935;DHT22;2462;51.456;7.248;2022-07-21T05:57:17;21.10;99.90
2935;DHT22;2462;51.456;7.248;2022-07-21T05:59:46;21.10;99.90
2935;DHT22;2462;51.456;7.248;2022-07-21T06:02:12;21.10;99.90
2935;DHT22;2462;51.456;7.248;2022-07-21T06:04:38;21.10;99.90
2935;DHT22;2462;51.456;7.248;2022-07-21T06:07:04;21.00;99.90
2935;DHT22;2462;51.456;7.248;2022-07-21T06:09:30;21.10;99.90
2935;DHT22;2462;51.456;7.248;2022-07-21T06:11:55;21.10;99.90
2935;DHT22;2462;51.456;7.248;2022-07-21T06:14:21;21.10;99.90
2935;DHT22;2462;51.456;7.248;2022-07-21T06:16:47;21.10;99.90
2935;DHT22;2462;51.456;7.248;2022-07-21T06:19:12;21.10;99.90
2935;DHT22;2462;51.456;7.248;2022-07-21T06:21:38;21.10;99.90
2935;DHT22;2462;51.456;7.248;2022-07-21T06:24:03;21.10;99.90
2935;DHT22;2462;51.456;7.248;2022-07-21T06:26:29;21.10;99.90
2935;DHT22;2462;51.456;7.248;2022-07-21T06:28:55;21.10;99.90
2935;DHT22;2462;51.456;7.248;2022-07-21T06:31:20;21.10;99.90
2935;DHT22;2462;51.456;7.248;2022-07-21T06:33:46;21.10;99.90
2935;DHT22;2462;51.456;7.248;2022-07-21T06:36:12;21.10;99.90
2935;DHT22;2462;51.456;7.248;2022-07-21T06:38:37;21.10;99.90
2935;DHT22;2462;51.456;7.248;2022-07-21T06:41:03;21.20;99.90
2935;DHT22;2462;51.456;7.248;2022-07-21T06:43:29;21.20;99.90
2935;DHT22;2462;51.456;7.248;2022-07-21T06:45:55;21.20;99.90
2935;DHT22;2462;51.456;7.248;2022-07-21T06:48:21;21.20;99.90
2935;DHT22;2462;51.456;7.248;2022-07-21T06:50:50;21.30;99.90
2935;DHT22;2462;51.456;7.248;2022-07-21T06:53:16;21.30;99.90
2935;DHT22;2462;51.456;7.248;2022-07-21T06:55:42;21.30;99.90
2935;DHT22;2462;51.456;7.248;2022-07-21T06:58:10;21.40;99.90
2935;DHT22;2462;51.456;7.248;2022-07-21T07:00:36;21.40;99.90
2935;DHT22;2462;51.456;7.248;2022-07-21T07:03:01;21.40;99.90
2935;DHT22;2462;51.456;7.248;2022-07-21T07:05:27;21.40;99.90
2935;DHT22;2462;51.456;7.248;2022-07-21T07:07:55;21.40;99.90
2935;DHT22;2462;51.456;7.248;2022-07-21T07:10:20;21.50;99.90
2935;DHT22;2462;51.456;7.248;2022-07-21T07:12:46;21.50;99.90
2935;DHT22;2462;51.456;7.248;2022-07-21T07:15:11;21.50;99.90
2935;DHT22;2462;51.456;7.248;2022-07-21T07:17:37;21.60;99.90
2935;DHT22;2462;51.456;7.248;2022-07-21T07:20:03;21.60;99.90
2935;DHT22;2462;51.456;7.248;2022-07-21T07:22:31;21.70;99.90
2935;DHT22;2462;51.456;7.248;2022-07-21T07:24:56;21.70;99.90
2935;DHT22;2462;51.456;7.248;2022-07-21T07:27:22;21.70;99.90
2935;DHT22;2462;51.456;7.248;2022-07-21T07:29:47;21.70;99.90
2935;DHT22;2462;51.456;7.248;2022-07-21T07:32:13;21.80;99.90
2935;DHT22;2462;51.456;7.248;2022-07-21T07:34:39;21.80;99.90
2935;DHT22;2462;51.456;7.248;2022-07-21T07:37:04;21.70;99.90
2935;DHT22;2462;51.456;7.248;2022-07-21T07:39:30;21.80;99.90
2935;DHT22;2462;51.456;7.248;2022-07-21T07:41:55;21.80;99.90
2935;DHT22;2462;51.456;7.248;2022-07-21T07:44:21;21.80;99.90
2935;DHT22;2462;51.456;7.248;2022-07-21T07:46:47;21.80;99.90
2935;DHT22;2462;51.456;7.248;2022-07-21T07:49:12;21.80;99.90
2935;DHT22;2462;51.456;7.248;2022-07-21T07:51:38;21.80;99.90
2935;DHT22;2462;51.456;7.248;2022-07-21T07:54:04;21.80;99.90
2935;DHT22;2462;51.456;7.248;2022-07-21T07:56:30;21.80;99.90
2935;DHT22;2462;51.456;7.248;2022-07-21T07:58:55;21.80;99.90
2935;DHT22;2462;51.456;7.248;2022-07-21T08:01:21;21.90;99.90
2935;DHT22;2462;51.456;7.248;2022-07-21T08:03:47;21.90;99.90
2935;DHT22;2462;51.456;7.248;2022-07-21T08:06:12;22.00;99.90
2935;DHT22;2462;51.456;7.248;2022-07-21T08:08:38;22.00;99.90
2935;DHT22;2462;51.456;7.248;2022-07-21T08:11:04;22.00;99.90
2935;DHT22;2462;51.456;7.248;2022-07-21T08:13:30;22.00;99.90
2935;DHT22;2462;51.456;7.248;2022-07-21T08:15:55;22.00;99.90
2935;DHT22;2462;51.456;7.248;2022-07-21T08:18:21;22.00;99.90
2935;DHT22;2462;51.456;7.248;2022-07-21T08:20:47;22.00;99.90
2935;DHT22;2462;51.456;7.248;2022-07-21T08:23:13;22.10;99.90
2935;DHT22;2462;51.456;7.248;2022-07-21T08:25:39;22.10;99.90
2935;DHT22;2462;51.456;7.248;2022-07-21T08:28:05;22.10;99.90
2935;DHT22;2462;51.456;7.248;2022-07-21T08:30:31;22.20;99.90
2935;DHT22;2462;51.456;7.248;2022-07-21T08:32:58;22.30;99.90
2935;DHT22;2462;51.456;7.248;2022-07-21T08:35:24;22.30;99.90
2935;DHT22;2462;51.456;7.248;2022-07-21T08:37:54;22.30;99.90
2935;DHT22;2462;51.456;7.248;2022-07-21T08:40:23;22.30;99.90
2935;DHT22;2462;51.456;7.248;2022-07-21T08:42:50;22.30;99.90
2935;DHT22;2462;51.456;7.248;2022-07-21T08:45:16;22.30;99.90
2935;DHT22;2462;51.456;7.248;2022-07-21T08:47:42;22.30;99.90
2935;DHT22;2462;51.456;7.248;2022-07-21T08:50:08;22.30;99.90
2935;DHT22;2462;51.456;7.248;2022-07-21T08:52:37;22.30;99.90
2935;DHT22;2462;51.456;7.248;2022-07-21T08:55:03;22.30;99.90
2935;DHT22;2462;51.456;7.248;2022-07-21T08:57:29;22.30;99.90
2935;DHT22;2462;51.456;7.248;2022-07-21T08:59:54;22.30;99.90
2935;DHT22;2462;51.456;7.248;2022-07-21T09:02:32;22.30;99.90
2935;DHT22;2462;51.456;7.248;2022-07-21T09:04:58;22.40;99.90
2935;DHT22;2462;51.456;7.248;2022-07-21T09:07:24;22.30;99.90
2935;DHT22;2462;51.456;7.248;2022-07-21T09:10:08;22.30;99.90
2935;DHT22;2462;51.456;7.248;2022-07-21T09:12:54;22.40;99.90
2935;DHT22;2462;51.456;7.248;2022-07-21T09:15:22;22.30;99.90
2935;DHT22;2462;51.456;7.248;2022-07-21T09:18:07;22.40;99.90
2935;DHT22;2462;51.456;7.248;2022-07-21T09:20:33;22.40;99.90
2935;DHT22;2462;51.456;7.248;2022-07-21T09:25:38;22.50;99.90
2935;DHT22;2462;51.456;7.248;2022-07-21T09:28:13;22.50;99.90
2935;DHT22;2462;51.456;7.248;2022-07-21T09:33:30;22.50;99.90
2935;DHT22;2462;51.456;7.248;2022-07-21T09:36:12;22.50;99.90
2935;DHT22;2462;51.456;7.248;2022-07-21T09:38:50;22.50;99.90
2935;DHT22;2462;51.456;7.248;2022-07-21T09:41:21;22.50;99.90
2935;DHT22;2462;51.456;7.248;2022-07-21T09:43:50;22.50;99.90
2935;DHT22;2462;51.456;7.248;2022-07-21T09:46:27;22.50;99.90
2935;DHT22;2462;51.456;7.248;2022-07-21T09:48:55;22.50;99.90
2935;DHT22;2462;51.456;7.248;2022-07-21T09:51:30;22.60;99.90
2935;DHT22;2462;51.456;7.248;2022-07-21T09:54:02;22.60;99.90
2935;DHT22;2462;51.456;7.248;2022-07-21T09:56:31;22.60;99.90
2935;DHT22;2462;51.456;7.248;2022-07-21T09:58:58;22.50;99.90
2935;DHT22;2462;51.456;7.248;2022-07-21T10:01:25;22.50;99.90
2935;DHT22;2462;51.456;7.248;2022-07-21T10:03:51;22.50;99.90
2935;DHT22;2462;51.456;7.248;2022-07-21T10:06:19;22.60;99.90
2935;DHT22;2462;51.456;7.248;2022-07-21T10:08:45;22.60;99.90
2935;DHT22;2462;51.456;7.248;2022-07-21T10:11:11;22.50;99.90
2935;DHT22;2462;51.456;7.248;2022-07-21T10:13:38;22.50;99.90
2935;DHT22;2462;51.456;7.248;2022-07-21T10:16:04;22.50;99.90
2935;DHT22;2462;51.456;7.248;2022-07-21T10:18:37;22.50;99.90
2935;DHT22;2462;51.456;7.248;2022-07-21T10:21:16;22.50;99.90
2935;DHT22;2462;51.456;7.248;2022-07-21T10:23:44;22.50;99.90
2935;DHT22;2462;51.456;7.248;2022-07-21T10:26:11;22.50;99.90
2935;DHT22;2462;51.456;7.248;2022-07-21T10:28:37;22.50;99.90
2935;DHT22;2462;51.456;7.248;2022-07-21T10:41:50;22.50;99.90
2935;DHT22;2462;51.456;7.248;2022-07-21T10:49:51;22.50;99.90
2935;DHT22;2462;51.456;7.248;2022-07-21T10:57:37;22.40;99.90
2935;DHT22;2462;51.456;7.248;2022-07-21T11:00:19;22.40;99.90
2935;DHT22;2462;51.456;7.248;2022-07-21T11:02:51;22.40;99.90
2935;DHT22;2462;51.456;7.248;2022-07-21T11:05:16;22.40;99.90
2935;DHT22;2462;51.456;7.248;2022-07-21T11:08:12;22.40;99.90
2935;DHT22;2462;51.456;7.248;2022-07-21T11:10:44;22.40;99.90
2935;DHT22;2462;51.456;7.248;2022-07-21T11:13:10;22.30;99.90
2935;DHT22;2462;51.456;7.248;2022-07-21T11:15:59;22.30;99.90
2935;DHT22;2462;51.456;7.248;2022-07-21T11:18:28;22.20;99.90
2935;DHT22;2462;51.456;7.248;2022-07-21T11:21:15;22.20;99.90
2935;DHT22;2462;51.456;7.248;2022-07-21T11:23:46;22.20;99.90
2935;DHT22;2462;51.456;7.248;2022-07-21T11:26:17;22.10;99.90
2935;DHT22;2462;51.456;7.248;2022-07-21T11:28:44;22.10;99.90
2935;DHT22;2462;51.456;7.248;2022-07-21T11:31:18;22.10;99.90
2935;DHT22;2462;51.456;7.248;2022-07-21T11:33:47;22.10;99.90
2935;DHT22;2462;51.456;7.248;2022-07-21T11:36:27;22.10;99.90
2935;DHT22;2462;51.456;7.248;2022-07-21T11:41:37;22.00;99.90
2935;DHT22;2462;51.456;7.248;2022-07-21T11:44:04;22.00;99.90
2935;DHT22;2462;51.456;7.248;2022-07-21T11:46:47;22.00;99.90
2935;DHT22;2462;51.456;7.248;2022-07-21T11:49:13;22.00;99.90
2935;DHT22;2462;51.456;7.248;2022-07-21T11:51:46;21.90;99.90
2935;DHT22;2462;51.456;7.248;2022-07-21T11:54:27;21.90;99.90
2935;DHT22;2462;51.456;7.248;2022-07-21T11:56:55;21.90;99.90
2935;DHT22;2462;51.456;7.248;2022-07-21T11:59:21;21.90;99.90
2935;DHT22;2462;51.456;7.248;2022-07-21T12:06:53;21.80;99.90
2935;DHT22;2462;51.456;7.248;2022-07-21T12:09:19;21.70;99.90
2935;DHT22;2462;51.456;7.248;2022-07-21T12:11:45;21.70;99.90
2935;DHT22;2462;51.456;7.248;2022-07-21T12:14:10;21.70;99.90
2935;DHT22;2462;51.456;7.248;2022-07-21T12:16:53;21.60;99.90
2935;DHT22;2462;51.456;7.248;2022-07-21T12:19:20;21.60;99.90
2935;DHT22;2462;51.456;7.248;2022-07-21T12:21:51;21.50;99.90
2935;DHT22;2462;51.456;7.248;2022-07-21T12:24:18;21.60;99.90
2935;DHT22;2462;51.456;7.248;2022-07-21T12:26:44;21.50;99.90
2935;DHT22;2462;51.456;7.248;2022-07-21T12:29:10;21.60;99.90
2935;DHT22;2462;51.456;7.248;2022-07-21T12:31:36;21.60;99.90
2935;DHT22;2462;51.456;7.248;2022-07-21T12:34:14;21.60;99.90
2935;DHT22;2462;51.456;7.248;2022-07-21T12:36:43;21.50;99.90
2935;DHT22;2462;51.456;7.248;2022-07-21T12:39:20;21.60;99.90
2935;DHT22;2462;51.456;7.248;2022-07-21T12:42:07;21.60;99.90
2935;DHT22;2462;51.456;7.248;2022-07-21T12:44:33;21.60;99.90
2935;DHT22;2462;51.456;7.248;2022-07-21T12:47:21;21.60;99.90
2935;DHT22;2462;51.456;7.248;2022-07-21T12:50:14;21.60;99.90
2935;DHT22;2462;51.456;7.248;2022-07-21T12:52:40;21.60;99.90
2935;DHT22;2462;51.456;7.248;2022-07-21T12:55:07;21.60;99.90
2935;DHT22;2462;51.456;7.248;2022-07-21T12:57:33;21.50;99.90
2935;DHT22;2462;51.456;7.248;2022-07-21T13:00:00;21.50;99.90
2935;DHT22;2462;51.456;7.248;2022-07-21T13:02:27;21.50;99.90
2935;DHT22;2462;51.456;7.248;2022-07-21T13:04:54;21.50;99.90
2935;DHT22;2462;51.456;7.248;2022-07-21T13:07:20;21.50;99.90
2935;DHT22;2462;51.456;7.248;2022-07-21T13:09:45;21.50;99.90
2935;DHT22;2462;51.456;7.248;2022-07-21T13:12:14;21.50;99.90
2935;DHT22;2462;51.456;7.248;2022-07-21T13:14:41;21.50;99.90
2935;DHT22;2462;51.456;7.248;2022-07-21T13:17:07;21.50;99.90
2935;DHT22;2462;51.456;7.248;2022-07-21T13:19:33;21.60;99.90
2935;DHT22;2462;51.456;7.248;2022-07-21T13:22:02;21.50;99.90
2935;DHT22;2462;51.456;7.248;2022-07-21T13:24:28;21.50;99.90
2935;DHT22;2462;51.456;7.248;2022-07-21T13:26:54;21.50;99.90
2935;DHT22;2462;51.456;7.248;2022-07-21T13:29:20;21.50;99.90
2935;DHT22;2462;51.456;7.248;2022-07-21T13:31:45;21.50;99.90
2935;DHT22;2462;51.456;7.248;2022-07-21T13:34:11;21.50;99.90
2935;DHT22;2462;51.456;7.248;2022-07-21T13:36:37;21.40;99.90
2935;DHT22;2462;51.456;7.248;2022-07-21T13:39:04;21.40;99.90
2935;DHT22;2462;51.456;7.248;2022-07-21T13:41:31;21.40;99.90
2935;DHT22;2462;51.456;7.248;2022-07-21T13:43:57;21.40;99.90
2935;DHT22;2462;51.456;7.248;2022-07-21T13:46:23;21.40;99.90
2935;DHT22;2462;51.456;7.248;2022-07-21T13:48:49;21.40;99.90
2935;DHT22;2462;51.456;7.248;2022-07-21T13:51:19;21.40;99.90
2935;DHT22;2462;51.456;7.248;2022-07-21T13:53:46;21.40;99.90
2935;DHT22;2462;51.456;7.248;2022-07-21T13:56:13;21.40;99.90
2935;DHT22;2462;51.456;7.248;2022-07-21T13:58:39;21.40;99.90
2935;DHT22;2462;51.456;7.248;2022-07-21T14:01:05;21.30;99.90
2935;DHT22;2462;51.456;7.248;2022-07-21T14:03:32;21.30;99.90
2935;DHT22;2462;51.456;7.248;2022-07-21T14:05:58;21.30;99.90
2935;DHT22;2462;51.456;7.248;2022-07-21T14:08:24;21.20;99.90
2935;DHT22;2462;51.456;7.248;2022-07-21T14:10:49;21.20;99.90
2935;DHT22;2462;51.456;7.248;2022-07-21T14:13:15;21.20;99.90
2935;DHT22;2462;51.456;7.248;2022-07-21T14:15:41;21.20;99.90
2935;DHT22;2462;51.456;7.248;2022-07-21T14:18:06;21.10;99.90
2935;DHT22;2462;51.456;7.248;2022-07-21T14:20:32;21.10;99.90
2935;DHT22;2462;51.456;7.248;2022-07-21T14:22:57;21.10;99.90
2935;DHT22;2462;51.456;7.248;2022-07-21T14:25:23;21.10;99.90
2935;DHT22;2462;51.456;7.248;2022-07-21T14:27:52;21.00;99.90
2935;DHT22;2462;51.456;7.248;2022-07-21T14:30:18;21.00;99.90
2935;DHT22;2462;51.456;7.248;2022-07-21T14:32:45;21.00;99.90
2935;DHT22;2462;51.456;7.248;2022-07-21T14:35:12;20.90;99.90
2935;DHT22;2462;51.456;7.248;2022-07-21T14:37:40;20.90;99.90
2935;DHT22;2462;51.456;7.248;2022-07-21T14:40:06;21.00;99.90
2935;DHT22;2462;51.456;7.248;2022-07-21T14:42:34;20.90;99.90
2935;DHT22;2462;51.456;7.248;2022-07-21T14:44:59;20.90;99.90
2935;DHT22;2462;51.456;7.248;2022-07-21T14:47:25;20.90;99.90
2935;DHT22;2462;51.456;7.248;2022-07-21T14:49:51;20.90;99.90
2935;DHT22;2462;51.456;7.248;2022-07-21T14:52:16;20.90;99.90
2935;DHT22;2462;51.456;7.248;2022-07-21T14:54:42;20.90;99.90
2935;DHT22;2462;51.456;7.248;2022-07-21T14:57:07;20.90;99.90
2935;DHT22;2462;51.456;7.248;2022-07-21T14:59:33;20.90;99.90
2935;DHT22;2462;51.456;7.248;2022-07-21T15:01:58;20.90;99.90
2935;DHT22;2462;51.456;7.248;2022-07-21T15:04:24;20.80;99.90
2935;DHT22;2462;51.456;7.248;2022-07-21T15:06:50;20.80;99.90
2935;DHT22;2462;51.456;7.248;2022-07-21T15:09:16;20.80;99.90
2935;DHT22;2462;51.456;7.248;2022-07-21T15:11:41;20.80;99.90
2935;DHT22;2462;51.456;7.248;2022-07-21T15:14:07;20.80;99.90
2935;DHT22;2462;51.456;7.248;2022-07-21T15:16:33;20.80;99.90
2935;DHT22;2462;51.456;7.248;2022-07-21T15:18:58;20.70;99.90
2935;DHT22;2462;51.456;7.248;2022-07-21T15:21:24;20.70;99.90
2935;DHT22;2462;51.456;7.248;2022-07-21T15:23:50;20.70;99.90
2935;DHT22;2462;51.456;7.248;2022-07-21T15:26:15;20.70;99.90
2935;DHT22;2462;51.456;7.248;2022-07-21T15:28:41;20.70;99.90
2935;DHT22;2462;51.456;7.248;2022-07-21T15:31:07;20.70;99.90
2935;DHT22;2462;51.456;7.248;2022-07-21T15:33:33;20.70;99.90
2935;DHT22;2462;51.456;7.248;2022-07-21T15:35:58;20.70;99.90
2935;DHT22;2462;51.456;7.248;2022-07-21T15:38:24;20.70;99.90
2935;DHT22;2462;51.456;7.248;2022-07-21T15:40:50;20.70;99.90
2935;DHT22;2462;51.456;7.248;2022-07-21T15:43:17;20.70;99.90
2935;DHT22;2462;51.456;7.248;2022-07-21T15:45:43;20.70;99.90
2935;DHT22;2462;51.456;7.248;2022-07-21T15:48:09;20.60;99.90
2935;DHT22;2462;51.456;7.248;2022-07-21T15:50:35;20.60;99.90
2935;DHT22;2462;51.456;7.248;2022-07-21T15:53:00;20.60;99.90
2935;DHT22;2462;51.456;7.248;2022-07-21T15:55:26;20.60;99.90
2935;DHT22;2462;51.456;7.248;2022-07-21T15:57:51;20.60;99.90
2935;DHT22;2462;51.456;7.248;2022-07-21T16:00:18;20.60;99.90
2935;DHT22;2462;51.456;7.248;2022-07-21T16:02:44;20.60;99.90
2935;DHT22;2462;51.456;7.248;2022-07-21T16:05:13;20.60;99.90
2935;DHT22;2462;51.456;7.248;2022-07-21T16:07:39;20.60;99.90
2935;DHT22;2462;51.456;7.248;2022-07-21T16:10:05;20.50;99.90
2935;DHT22;2462;51.456;7.248;2022-07-21T16:12:31;20.50;99.90
2935;DHT22;2462;51.456;7.248;2022-07-21T16:14:56;20.50;99.90
2935;DHT22;2462;51.456;7.248;2022-07-21T16:17:22;20.50;99.90
2935;DHT22;2462;51.456;7.248;2022-07-21T16:19:47;20.40;99.90
2935;DHT22;2462;51.456;7.248;2022-07-21T16:22:13;20.40;99.90
2935;DHT22;2462;51.456;7.248;2022-07-21T16:24:39;20.40;99.90
2935;DHT22;2462;51.456;7.248;2022-07-21T16:27:05;20.40;99.90
2935;DHT22;2462;51.456;7.248;2022-07-21T16:29:31;20.40;99.90
2935;DHT22;2462;51.456;7.248;2022-07-21T16:31:58;20.40;99.90
2935;DHT22;2462;51.456;7.248;2022-07-21T16:34:25;20.40;99.90
2935;DHT22;2462;51.456;7.248;2022-07-21T16:36:52;20.40;99.90